Time;durP1;ratioP1;P1;durP2;ratioP2;P2;SDS_P1;SDS_P2;PMS_P1;PMS_P2;Temp;Humidity;BMP_temperature;BMP_pressure;BME280_temperature;BME280_humidity;BME280_pressure;Samples;Min_cycle;Max_cycle;Signal;HPM_P1;HPM_P2
2023/03/28 00:00:48;;;;;;;12.25;1.23;;;5.30;99.90;;;;;;5076761;28;20126;-78
2023/03/28 00:03:17;;;;;;;5.07;0.95;;;5.30;99.90;;;;;;5076689;28;20134;-78
2023/03/28 00:05:47;;;;;;;6.72;1.52;;;5.20;99.90;;;;;;5076175;28;20040;-78
2023/03/28 00:08:17;;;;;;;6.07;0.95;;;5.30;99.90;;;;;;5076195;28;20044;-78
2023/03/28 00:10:43;;;;;;;5.20;0.75;;;5.20;99.90;;;;;;5076591;28;20044;-77
2023/03/28 00:13:12;;;;;;;8.07;1.63;;;5.20;99.90;;;;;;5076924;28;20040;-78
2023/03/28 00:15:39;;;;;;;5.15;1.13;;;5.20;99.90;;;;;;5076578;28;20048;-78
2023/03/28 00:18:06;;;;;;;6.22;0.77;;;5.20;99.90;;;;;;5076519;28;20047;-78
2023/03/28 00:20:37;;;;;;;13.23;1.13;;;5.10;99.90;;;;;;5076198;28;20130;-78
2023/03/28 00:23:03;;;;;;;8.35;1.02;;;5.20;99.90;;;;;;5076384;28;20547;-78
2023/03/28 00:25:33;;;;;;;6.18;1.58;;;5.10;99.90;;;;;;5076380;28;20131;-78
2023/03/28 00:27:59;;;;;;;11.25;3.00;;;5.20;99.90;;;;;;5076466;28;20089;-78
2023/03/28 00:30:24;;;;;;;10.68;1.38;;;5.20;99.90;;;;;;5076270;28;20487;-78
2023/03/28 00:32:52;;;;;;;6.07;0.98;;;5.10;99.90;;;;;;5076312;28;20055;-78
2023/03/28 00:35:18;;;;;;;8.07;0.98;;;5.10;99.90;;;;;;5076308;28;20050;-78
2023/03/28 00:37:44;;;;;;;6.88;1.17;;;5.10;99.90;;;;;;5076401;28;20043;-78
2023/03/28 00:40:13;;;;;;;5.15;1.05;;;5.10;99.90;;;;;;5076008;28;20040;-78
2023/03/28 00:42:42;;;;;;;8.32;1.55;;;5.20;99.90;;;;;;5076144;28;20047;-78
2023/03/28 00:45:10;;;;;;;10.48;1.60;;;5.10;99.90;;;;;;5076311;28;20055;-78
2023/03/28 00:47:42;;;;;;;7.65;1.15;;;5.10;99.90;;;;;;5076153;28;20546;-78
2023/03/28 00:50:29;;;;;;;9.80;1.35;;;5.10;99.90;;;;;;5075909;28;20075;-78
2023/03/28 00:52:58;;;;;;;8.48;1.20;;;5.10;99.90;;;;;;5075734;28;20052;-78
2023/03/28 00:56:07;;;;;;;6.78;1.73;;;5.10;99.90;;;;;;5075906;28;20053;-78
2023/03/28 00:58:41;;;;;;;5.55;0.93;;;5.00;99.90;;;;;;5076119;28;20052;-78
2023/03/28 01:01:09;;;;;;;9.35;1.58;;;5.10;99.90;;;;;;5075550;28;20082;-78
2023/03/28 01:03:45;;;;;;;8.75;0.93;;;5.10;99.90;;;;;;5075667;28;20410;-78
2023/03/28 01:06:13;;;;;;;9.77;1.40;;;5.00;99.90;;;;;;5059318;28;20055;-78
2023/03/28 01:08:42;;;;;;;7.93;0.93;;;5.00;99.90;;;;;;5075645;28;20039;-77
2023/03/28 01:11:10;;;;;;;9.48;1.23;;;5.00;99.90;;;;;;5075677;28;20131;-77
2023/03/28 01:13:40;;;;;;;9.27;1.20;;;5.00;99.90;;;;;;5075581;28;20483;-77
2023/03/28 01:16:07;;;;;;;10.75;1.75;;;5.00;99.90;;;;;;5075687;28;20066;-78
2023/03/28 01:18:34;;;;;;;8.18;1.63;;;5.00;99.90;;;;;;5075635;28;20104;-78
2023/03/28 01:21:34;;;;;;;5.93;1.27;;;4.90;99.90;;;;;;5075735;28;20036;-78
2023/03/28 01:24:25;;;;;;;8.35;1.23;;;4.90;99.90;;;;;;5075906;28;20505;-78
2023/03/28 01:26:57;;;;;;;7.38;1.65;;;5.00;99.90;;;;;;5075640;28;20055;-78
2023/03/28 01:30:02;;;;;;;8.57;1.60;;;4.90;99.90;;;;;;5075862;28;20047;-78
2023/03/28 01:33:05;;;;;;;4.88;1.05;;;4.90;99.90;;;;;;5075467;28;20059;-78
2023/03/28 01:35:46;;;;;;;7.53;1.05;;;4.90;99.90;;;;;;5075597;28;20055;-78
2023/03/28 01:38:37;;;;;;;9.38;1.30;;;4.90;99.90;;;;;;5075598;28;20048;-78
2023/03/28 01:41:22;;;;;;;8.10;1.10;;;4.90;99.90;;;;;;5075346;28;20047;-78
2023/03/28 01:43:56;;;;;;;7.55;1.00;;;4.90;99.90;;;;;;5075655;28;20036;-78
2023/03/28 01:47:00;;;;;;;9.52;1.85;;;4.90;99.90;;;;;;5075395;28;20048;-78
2023/03/28 01:49:45;;;;;;;6.40;0.80;;;4.90;99.90;;;;;;4975598;28;20093;-77
2023/03/28 01:52:34;;;;;;;11.32;1.52;;;4.90;99.90;;;;;;5069495;28;20601;-78
2023/03/28 01:55:16;;;;;;;13.60;1.60;;;4.90;99.90;;;;;;5075274;28;20044;-78
2023/03/28 01:58:11;;;;;;;11.07;1.13;;;4.90;99.90;;;;;;5075606;28;20131;-78
2023/03/28 02:00:41;;;;;;;11.82;0.98;;;4.90;99.90;;;;;;5075113;28;20306;-78
2023/03/28 02:03:23;;;;;;;12.70;1.35;;;4.90;99.90;;;;;;5075160;28;20036;-77
2023/03/28 02:05:53;;;;;;;6.18;1.10;;;4.90;99.90;;;;;;5075474;28;20490;-78
2023/03/28 02:08:20;;;;;;;5.88;1.52;;;4.80;99.90;;;;;;5075348;28;20044;-78
2023/03/28 02:10:48;;;;;;;7.20;0.95;;;4.90;99.90;;;;;;5074901;28;20048;-78
2023/03/28 02:13:18;;;;;;;13.65;2.20;;;4.90;99.90;;;;;;5074988;28;20047;-78
2023/03/28 02:15:49;;;;;;;7.00;1.58;;;4.90;99.90;;;;;;5075014;28;20052;-78
2023/03/28 02:18:22;;;;;;;9.02;1.50;;;4.90;99.90;;;;;;5093114;28;20036;-78
2023/03/28 02:20:59;;;;;;;7.90;1.10;;;4.80;99.90;;;;;;5074924;28;20046;-78
2023/03/28 02:23:42;;;;;;;7.95;1.40;;;4.90;99.90;;;;;;5074890;28;20052;-77
2023/03/28 02:26:09;;;;;;;6.15;0.77;;;4.90;99.90;;;;;;5074846;28;20055;-77
2023/03/28 02:28:36;;;;;;;8.25;1.10;;;4.80;99.90;;;;;;5075115;28;20083;-77
2023/03/28 02:31:05;;;;;;;11.98;1.70;;;4.90;99.90;;;;;;5077847;28;20429;-77
2023/03/28 02:33:36;;;;;;;5.63;0.80;;;4.80;99.90;;;;;;5078768;28;20044;-77
2023/03/28 02:36:21;;;;;;;9.75;1.42;;;4.90;99.90;;;;;;5078361;28;20044;-77
2023/03/28 02:39:13;;;;;;;4.80;1.38;;;4.90;99.90;;;;;;5078610;28;20395;-77
2023/03/28 02:42:00;;;;;;;8.13;1.00;;;4.90;99.90;;;;;;5096601;28;20070;-77
2023/03/28 02:44:52;;;;;;;8.38;1.48;;;4.90;99.90;;;;;;5078545;28;20290;-77
2023/03/28 02:47:33;;;;;;;7.60;1.35;;;4.80;99.90;;;;;;5078331;28;20098;-77
2023/03/28 02:50:11;;;;;;;3.70;0.90;;;4.80;99.90;;;;;;5078503;28;20441;-77
2023/03/28 02:52:49;;;;;;;8.70;1.10;;;4.70;99.90;;;;;;5077952;28;20139;-77
2023/03/28 02:55:48;;;;;;;6.07;0.70;;;4.70;99.90;;;;;;5078099;28;20064;-77
2023/03/28 02:58:23;;;;;;;7.93;1.40;;;4.70;99.90;;;;;;5078078;28;20059;-78
2023/03/28 03:00:50;;;;;;;5.93;0.80;;;4.70;99.90;;;;;;5077932;28;20429;-77
2023/03/28 03:03:16;;;;;;;5.07;0.98;;;4.70;99.90;;;;;;5078533;28;20115;-77
2023/03/28 03:05:42;;;;;;;6.25;0.70;;;4.70;99.90;;;;;;5077786;28;20040;-77
2023/03/28 03:08:08;;;;;;;6.00;0.88;;;4.70;99.90;;;;;;5078500;28;20126;-78
2023/03/28 03:10:34;;;;;;;7.88;1.50;;;4.70;99.90;;;;;;5077910;28;20451;-77
2023/03/28 03:13:00;;;;;;;6.38;1.20;;;4.70;99.90;;;;;;5077922;28;20047;-78
2023/03/28 03:15:29;;;;;;;15.32;2.17;;;4.70;99.90;;;;;;5078063;28;20074;-77
2023/03/28 03:17:58;;;;;;;5.15;0.88;;;4.70;99.90;;;;;;5077621;28;20504;-77
2023/03/28 03:20:25;;;;;;;4.20;0.93;;;4.70;99.90;;;;;;5077747;28;20051;-78
2023/03/28 03:22:55;;;;;;;7.72;1.00;;;4.70;99.90;;;;;;5077798;28;20048;-78
2023/03/28 03:25:21;;;;;;;5.45;1.02;;;4.70;99.90;;;;;;5077679;28;20126;-77
2023/03/28 03:27:46;;;;;;;5.55;1.38;;;4.70;99.90;;;;;;5077520;28;20127;-77
2023/03/28 03:30:12;;;;;;;6.90;1.10;;;4.70;99.90;;;;;;5077817;28;20186;-78
2023/03/28 03:32:38;;;;;;;7.40;1.02;;;4.60;99.90;;;;;;5077248;28;20105;-78
2023/03/28 03:35:05;;;;;;;6.75;1.73;;;4.60;99.90;;;;;;5077429;28;20047;-77
2023/03/28 03:37:31;;;;;;;5.10;1.30;;;4.60;99.90;;;;;;5077714;28;20052;-78
2023/03/28 03:39:56;;;;;;;12.98;1.48;;;4.50;99.90;;;;;;5077083;28;20071;-78
2023/03/28 03:42:24;;;;;;;6.13;0.85;;;4.60;99.90;;;;;;5077149;28;20537;-78
2023/03/28 03:44:53;;;;;;;7.32;0.98;;;4.60;99.90;;;;;;5076991;28;20040;-77
2023/03/28 03:47:19;;;;;;;4.55;1.33;;;4.50;99.90;;;;;;5077282;28;20044;-77
2023/03/28 03:49:44;;;;;;;5.75;0.77;;;4.50;99.90;;;;;;5077112;28;20547;-77
2023/03/28 03:52:10;;;;;;;7.53;1.08;;;4.60;99.90;;;;;;5076756;28;20052;-77
2023/03/28 03:54:39;;;;;;;3.65;0.93;;;4.60;99.90;;;;;;5077288;28;20130;-78
2023/03/28 03:57:05;;;;;;;10.55;1.23;;;4.50;99.90;;;;;;5095084;28;20089;-78
2023/03/28 03:59:30;;;;;;;8.48;1.08;;;4.60;99.90;;;;;;5076996;28;20048;-78
2023/03/28 04:01:56;;;;;;;9.07;1.38;;;4.50;99.90;;;;;;5076487;28;20044;-78
2023/03/28 04:04:22;;;;;;;5.80;0.80;;;4.50;99.90;;;;;;5077033;28;20149;-78
2023/03/28 04:06:47;;;;;;;6.80;1.65;;;4.50;99.90;;;;;;5076816;28;20039;-78
2023/03/28 04:09:13;;;;;;;9.15;1.38;;;4.50;99.90;;;;;;5076879;28;20043;-78
2023/03/28 04:11:39;;;;;;;4.30;0.90;;;4.50;99.90;;;;;;5076799;28;20179;-78
2023/03/28 04:14:04;;;;;;;9.35;1.17;;;4.50;99.90;;;;;;5076611;28;20044;-78
2023/03/28 04:16:33;;;;;;;8.77;1.45;;;4.40;99.90;;;;;;5076429;28;20047;-78
2023/03/28 04:18:59;;;;;;;5.90;1.05;;;4.40;99.90;;;;;;5076595;28;20066;-78
2023/03/28 04:21:28;;;;;;;6.03;0.93;;;4.50;99.90;;;;;;5076283;28;20555;-78
2023/03/28 04:23:54;;;;;;;4.00;1.42;;;4.50;99.90;;;;;;5076563;28;20036;-78
2023/03/28 04:26:24;;;;;;;8.93;1.45;;;4.40;99.90;;;;;;5076156;28;20044;-78
2023/03/28 04:28:51;;;;;;;6.97;1.40;;;4.50;99.90;;;;;;5076370;28;20068;-78
2023/03/28 04:31:18;;;;;;;6.78;1.40;;;4.50;99.90;;;;;;5076169;28;20066;-78
2023/03/28 04:33:44;;;;;;;6.88;1.08;;;4.50;99.90;;;;;;5076186;28;20044;-78
2023/03/28 04:36:10;;;;;;;6.50;1.55;;;4.40;99.90;;;;;;5076045;28;20081;-78
2023/03/28 04:38:36;;;;;;;5.50;1.50;;;4.50;99.90;;;;;;5076137;28;20089;-78
2023/03/28 04:41:04;;;;;;;10.27;1.30;;;4.50;99.90;;;;;;5076044;28;20127;-78
2023/03/28 04:43:32;;;;;;;5.20;1.20;;;4.40;99.90;;;;;;5076197;28;20040;-78
2023/03/28 04:45:59;;;;;;;8.60;1.05;;;4.40;99.90;;;;;;5075973;28;20509;-78
2023/03/28 04:48:26;;;;;;;6.35;1.08;;;4.30;99.90;;;;;;5076056;28;20055;-78
2023/03/28 04:50:53;;;;;;;9.20;1.23;;;4.30;99.90;;;;;;5075982;28;20056;-79
2023/03/28 04:53:19;;;;;;;6.10;1.40;;;4.20;99.90;;;;;;5075670;28;20047;-78
2023/03/28 04:55:49;;;;;;;9.40;2.08;;;4.10;99.90;;;;;;5075977;28;20051;-78
2023/03/28 04:58:19;;;;;;;6.53;1.30;;;4.00;99.90;;;;;;5076159;28;20056;-78
2023/03/28 05:00:45;;;;;;;6.45;1.80;;;3.80;99.90;;;;;;5075783;28;20043;-78
2023/03/28 05:03:22;;;;;;;6.45;1.17;;;3.70;99.90;;;;;;5076133;28;20093;-78
2023/03/28 05:05:51;;;;;;;7.47;1.40;;;3.60;99.90;;;;;;5075993;28;20077;-78
2023/03/28 05:08:19;;;;;;;8.38;1.40;;;3.50;99.90;;;;;;5075530;28;20032;-78
2023/03/28 05:10:45;;;;;;;9.23;1.10;;;3.30;99.90;;;;;;5075526;28;20039;-78
2023/03/28 05:13:12;;;;;;;7.50;1.20;;;3.30;99.90;;;;;;5078897;22;20143;-79
2023/03/28 05:15:38;;;;;;;4.13;0.98;;;3.30;99.90;;;;;;5072262;28;20123;-78
2023/03/28 05:18:10;;;;;;;8.85;1.75;;;3.40;99.90;;;;;;5072179;28;20059;-78
2023/03/28 05:20:36;;;;;;;8.73;1.25;;;3.40;99.90;;;;;;5070889;28;20056;-78
2023/03/28 05:23:02;;;;;;;12.07;1.55;;;3.40;99.90;;;;;;5071931;28;20044;-79
2023/03/28 05:25:28;;;;;;;7.20;1.10;;;3.40;99.90;;;;;;5071941;28;20048;-79
2023/03/28 05:27:54;;;;;;;5.75;1.23;;;3.40;99.90;;;;;;5072065;28;20094;-78
2023/03/28 05:30:19;;;;;;;9.57;1.58;;;3.40;99.90;;;;;;5071912;28;20040;-78
2023/03/28 05:32:46;;;;;;;9.60;1.70;;;3.40;99.90;;;;;;5072268;28;20050;-78
2023/03/28 05:35:14;;;;;;;8.65;1.52;;;3.40;99.90;;;;;;5072257;28;20041;-79
2023/03/28 05:37:40;;;;;;;7.32;1.50;;;3.30;99.90;;;;;;5072093;28;20127;-78
2023/03/28 05:40:09;;;;;;;8.73;1.10;;;3.30;99.90;;;;;;5072067;28;20151;-78
2023/03/28 05:42:35;;;;;;;9.13;1.85;;;3.20;99.90;;;;;;5072003;28;20048;-79
2023/03/28 05:45:02;;;;;;;7.15;1.30;;;3.20;99.90;;;;;;5071910;28;20040;-78
2023/03/28 05:47:28;;;;;;;10.20;1.02;;;3.20;99.90;;;;;;5072048;28;20048;-78
2023/03/28 05:49:54;;;;;;;4.97;1.17;;;3.20;99.90;;;;;;5071752;28;20076;-78
2023/03/28 05:52:20;;;;;;;6.53;1.10;;;3.20;99.90;;;;;;5072064;28;20048;-78
2023/03/28 05:54:46;;;;;;;8.00;1.17;;;3.10;99.90;;;;;;5071856;28;20152;-78
2023/03/28 05:57:11;;;;;;;6.80;1.52;;;3.10;99.90;;;;;;5072260;28;20364;-78
2023/03/28 05:59:39;;;;;;;8.25;1.30;;;3.10;99.90;;;;;;5071846;28;20391;-78
2023/03/28 06:02:10;;;;;;;8.10;1.55;;;3.00;99.90;;;;;;5071752;28;20045;-78
2023/03/28 06:04:36;;;;;;;7.28;1.42;;;3.10;99.90;;;;;;5073044;28;20040;-78
2023/03/28 06:07:04;;;;;;;7.93;1.10;;;3.10;99.90;;;;;;5075745;28;20115;-79
2023/03/28 06:09:30;;;;;;;9.05;2.10;;;3.20;99.90;;;;;;5075706;28;20041;-78
2023/03/28 06:12:00;;;;;;;6.68;1.40;;;3.20;99.90;;;;;;5076624;28;20376;-80
2023/03/28 06:14:26;;;;;;;8.52;1.90;;;3.30;99.90;;;;;;5075356;28;20170;-79
2023/03/28 06:16:52;;;;;;;7.28;1.38;;;3.40;99.90;;;;;;5076423;28;20519;-78
2023/03/28 06:19:18;;;;;;;12.35;2.80;;;3.50;99.90;;;;;;5075362;28;20044;-78
2023/03/28 06:21:43;;;;;;;10.48;1.83;;;3.70;99.90;;;;;;5075311;28;20048;-78
2023/03/28 06:24:10;;;;;;;9.55;1.88;;;3.90;99.90;;;;;;5075445;28;20372;-78
2023/03/28 06:26:35;;;;;;;3.63;0.88;;;4.00;99.90;;;;;;5075421;28;20057;-78
2023/03/28 06:29:01;;;;;;;10.07;1.48;;;4.20;99.90;;;;;;5075039;28;20381;-78
2023/03/28 06:31:27;;;;;;;9.57;1.35;;;4.30;99.90;;;;;;5075309;28;20044;-79
2023/03/28 06:33:52;;;;;;;6.38;1.23;;;4.30;99.90;;;;;;5074855;28;20087;-79
2023/03/28 06:36:19;;;;;;;6.22;0.93;;;4.40;99.90;;;;;;5074521;28;20491;-79
2023/03/28 06:38:45;;;;;;;11.20;1.30;;;4.30;99.90;;;;;;5074970;28;20048;-78
2023/03/28 06:41:11;;;;;;;8.93;1.60;;;4.40;99.90;;;;;;5074862;28;20047;-79
2023/03/28 06:43:37;;;;;;;7.78;1.65;;;4.30;99.90;;;;;;5085245;22;20051;-79
2023/03/28 06:46:03;;;;;;;9.43;1.80;;;4.30;99.90;;;;;;5078061;28;20051;-79
2023/03/28 06:48:30;;;;;;;6.82;1.52;;;4.20;99.90;;;;;;5078399;28;20036;-79
2023/03/28 06:50:59;;;;;;;8.32;1.50;;;4.20;99.90;;;;;;5078110;28;20127;-79
2023/03/28 06:53:25;;;;;;;8.00;1.33;;;4.20;99.90;;;;;;5078225;28;20048;-78
2023/03/28 06:55:52;;;;;;;7.43;2.10;;;4.40;99.90;;;;;;5078193;28;20103;-78
2023/03/28 06:58:19;;;;;;;8.13;1.70;;;4.40;99.90;;;;;;5096073;28;20040;-78
2023/03/28 07:00:46;;;;;;;5.07;1.60;;;4.50;99.90;;;;;;5077839;28;20097;-79
2023/03/28 07:03:11;;;;;;;5.60;1.80;;;4.60;99.90;;;;;;5078192;28;20082;-79
2023/03/28 07:05:39;;;;;;;5.45;1.52;;;4.70;99.90;;;;;;5077897;28;20075;-78
2023/03/28 07:08:10;;;;;;;6.55;1.80;;;4.70;99.90;;;;;;5078067;28;20052;-80
2023/03/28 07:10:37;;;;;;;8.00;2.53;;;4.80;99.90;;;;;;5076492;28;20193;-79
2023/03/28 07:13:04;;;;;;;6.03;2.42;;;4.90;99.90;;;;;;5076152;28;20055;-78
2023/03/28 07:15:30;;;;;;;8.50;2.50;;;4.90;99.90;;;;;;5076861;28;20088;-79
2023/03/28 07:17:56;;;;;;;9.43;2.83;;;5.00;99.90;;;;;;5077522;28;20044;-79
2023/03/28 07:20:22;;;;;;;6.70;1.80;;;5.10;99.90;;;;;;5077530;28;20483;-79
2023/03/28 07:22:48;;;;;;;2.38;1.00;;;5.10;99.90;;;;;;5077132;28;20040;-79
2023/03/28 07:25:14;;;;;;;9.02;1.33;;;5.20;99.90;;;;;;5077160;28;20054;-79
2023/03/28 07:27:39;;;;;;;8.15;1.30;;;5.30;99.90;;;;;;5077403;28;20098;-79
2023/03/28 07:30:06;;;;;;;6.07;1.27;;;5.40;99.90;;;;;;5077051;28;20047;-79
2023/03/28 07:32:32;;;;;;;6.00;1.50;;;5.50;99.90;;;;;;5077341;28;20079;-79
2023/03/28 07:34:57;;;;;;;5.05;1.95;;;5.60;99.90;;;;;;5076997;28;20439;-80
2023/03/28 07:37:23;;;;;;;4.65;1.00;;;5.80;99.90;;;;;;5077014;28;20052;-79
2023/03/28 07:39:53;;;;;;;2.45;0.90;;;5.90;99.90;;;;;;5077206;28;20040;-79
2023/03/28 07:42:26;;;;;;;4.40;1.20;;;6.00;99.90;;;;;;5076909;28;20127;-79
2023/03/28 07:44:52;;;;;;;3.83;0.98;;;6.10;99.90;;;;;;5076966;28;20097;-81
2023/03/28 07:47:19;;;;;;;5.25;1.45;;;6.20;99.90;;;;;;5076831;28;20056;-83
2023/03/28 07:49:46;;;;;;;8.55;1.48;;;6.20;99.90;;;;;;5076799;28;20046;-84
2023/03/28 07:52:12;;;;;;;6.10;1.10;;;6.20;99.90;;;;;;5077003;28;20040;-83
2023/03/28 07:54:39;;;;;;;8.40;1.25;;;6.20;99.90;;;;;;5076624;28;20052;-82
2023/03/28 07:57:05;;;;;;;5.53;0.90;;;6.30;99.90;;;;;;5076590;28;20138;-79
2023/03/28 07:59:30;;;;;;;3.10;0.90;;;6.30;99.90;;;;;;5076479;28;20127;-79
2023/03/28 08:01:56;;;;;;;6.93;0.95;;;6.30;99.90;;;;;;5076357;28;20139;-80
2023/03/28 08:04:22;;;;;;;5.63;1.20;;;6.30;99.90;;;;;;5077003;28;20075;-81
2023/03/28 08:06:51;;;;;;;3.55;1.30;;;6.30;99.90;;;;;;5076530;28;20051;-82
2023/03/28 08:09:18;;;;;;;7.80;1.38;;;6.60;99.90;;;;;;5076209;28;20044;-83
2023/03/28 08:11:45;;;;;;;7.65;1.13;;;6.70;99.90;;;;;;5076568;28;20051;-81
2023/03/28 08:14:14;;;;;;;4.75;0.90;;;6.90;99.90;;;;;;5076032;28;20040;-83
2023/03/28 08:16:40;;;;;;;3.45;0.70;;;7.20;99.90;;;;;;5076353;28;20127;-82
2023/03/28 08:19:06;;;;;;;3.35;0.93;;;7.30;99.90;;;;;;5076273;28;20062;-81
2023/03/28 08:21:34;;;;;;;2.55;0.60;;;7.40;99.90;;;;;;5076081;28;20052;-81
2023/03/28 08:24:00;;;;;;;2.85;0.75;;;7.50;99.90;;;;;;5076300;28;20037;-81
2023/03/28 08:26:28;;;;;;;8.38;0.90;;;7.60;99.90;;;;;;5076169;28;20052;-81
2023/03/28 08:28:59;;;;;;;3.30;0.82;;;7.50;99.90;;;;;;5075473;28;20044;-81
2023/03/28 08:31:27;;;;;;;5.10;0.52;;;7.50;99.90;;;;;;5075391;28;20135;-81
2023/03/28 08:33:54;;;;;;;2.42;0.52;;;7.50;99.90;;;;;;5075927;28;20040;-81
2023/03/28 08:36:21;;;;;;;4.32;0.73;;;7.50;99.90;;;;;;5076035;28;20051;-81
2023/03/28 08:38:52;;;;;;;3.70;0.47;;;7.50;99.90;;;;;;5075643;28;20085;-81
2023/03/28 08:41:53;;;;;;;4.13;0.77;;;7.50;99.90;;;;;;5075493;28;20101;-83
2023/03/28 08:44:48;;;;;;;5.10;0.80;;;7.50;99.90;;;;;;5075545;28;20062;-83
2023/03/28 08:47:54;;;;;;;2.88;0.60;;;7.40;99.90;;;;;;5123706;23;20103;-82
2023/03/28 08:50:37;;;;;;;1.58;0.60;;;7.40;99.90;;;;;;5055794;28;20040;-82
2023/03/28 08:53:04;;;;;;;4.28;0.70;;;7.40;99.90;;;;;;5055917;28;20109;-82
2023/03/28 08:55:38;;;;;;;2.78;0.75;;;7.40;99.90;;;;;;5075056;22;20170;-82
2023/03/28 08:58:09;;;;;;;2.30;0.70;;;7.40;99.90;;;;;;5072187;28;20051;-82
2023/03/28 09:00:36;;;;;;;4.22;0.80;;;7.30;99.90;;;;;;5092013;22;20134;-82
2023/03/28 09:03:12;;;;;;;2.28;0.60;;;7.30;99.90;;;;;;5075516;28;20064;-82
2023/03/28 09:05:45;;;;;;;5.78;0.98;;;7.30;99.90;;;;;;5075328;28;20157;-82
2023/03/28 09:08:56;;;;;;;3.08;1.50;;;7.20;99.90;;;;;;5075517;28;20044;-82
2023/03/28 09:11:42;;;;;;;3.30;0.85;;;7.30;99.90;;;;;;5014178;28;20636;-82
2023/03/28 09:14:14;;;;;;;4.03;0.70;;;7.20;99.90;;;;;;5075312;28;20040;-82
2023/03/28 09:16:42;;;;;;;2.28;0.90;;;7.30;99.90;;;;;;5075559;28;20059;-83
2023/03/28 09:19:20;;;;;;;3.72;0.80;;;7.50;99.90;;;;;;5075365;28;20043;-80
2023/03/28 09:22:00;;;;;;;3.35;1.00;;;7.70;99.90;;;;;;5075263;28;20051;-81
2023/03/28 09:25:01;;;;;;;8.18;0.90;;;7.70;99.90;;;;;;5075352;28;20052;-81
2023/03/28 09:28:02;;;;;;;5.95;1.10;;;7.70;99.90;;;;;;5075326;28;20139;-78
2023/03/28 09:30:40;;;;;;;4.90;0.90;;;7.90;99.90;;;;;;5024868;28;20063;-80
2023/03/28 09:33:13;;;;;;;5.72;1.08;;;7.90;99.90;;;;;;5075045;28;20063;-80
2023/03/28 09:35:40;;;;;;;5.72;0.90;;;7.90;99.90;;;;;;5056751;22;20052;-79
2023/03/28 09:38:17;;;;;;;3.30;0.73;;;7.90;99.90;;;;;;5034114;28;20488;-79
2023/03/28 09:40:50;;;;;;;2.55;0.90;;;8.00;99.90;;;;;;5039233;28;20045;-80
2023/03/28 09:43:33;;;;;;;8.63;1.00;;;8.00;99.90;;;;;;5039374;28;20045;-80
2023/03/28 09:46:02;;;;;;;4.30;0.93;;;7.90;99.90;;;;;;5049016;28;20369;-80
2023/03/28 09:48:36;;;;;;;4.40;1.08;;;7.90;99.90;;;;;;5059176;28;20040;-80
2023/03/28 09:51:04;;;;;;;5.93;1.30;;;7.90;99.90;;;;;;5056710;28;20040;-81
2023/03/28 09:53:33;;;;;;;3.25;0.80;;;8.00;99.90;;;;;;5059263;28;20048;-80
2023/03/28 09:56:17;;;;;;;3.45;0.80;;;8.10;99.90;;;;;;5058867;28;20072;-80
2023/03/28 09:58:58;;;;;;;4.57;0.70;;;8.10;99.90;;;;;;5058837;28;20086;-80
2023/03/28 10:01:38;;;;;;;1.25;0.50;;;8.20;99.90;;;;;;5058729;28;20577;-80
2023/03/28 10:04:35;;;;;;;3.72;0.90;;;8.20;99.90;;;;;;5058857;28;20041;-80
2023/03/28 10:07:10;;;;;;;3.45;0.88;;;8.20;99.90;;;;;;5047160;28;20103;-80
2023/03/28 10:09:57;;;;;;;3.05;1.00;;;8.30;99.90;;;;;;5053265;28;20041;-81
2023/03/28 10:12:36;;;;;;;5.22;1.27;;;8.50;99.90;;;;;;5058475;28;20408;-81
2023/03/28 10:15:03;;;;;;;3.55;1.30;;;8.60;99.90;;;;;;5058956;28;20052;-81
2023/03/28 10:17:35;;;;;;;5.60;1.92;;;8.70;99.90;;;;;;5058999;28;20044;-81
2023/03/28 10:20:06;;;;;;;4.88;1.20;;;8.80;99.90;;;;;;5058476;28;20111;-79
2023/03/28 10:22:36;;;;;;;2.45;0.90;;;8.80;99.90;;;;;;5058371;28;20052;-80
2023/03/28 10:25:11;;;;;;;4.22;0.90;;;8.80;99.90;;;;;;5058305;28;20045;-79
2023/03/28 10:27:38;;;;;;;4.05;1.33;;;8.60;99.90;;;;;;5058181;28;20052;-79
2023/03/28 10:30:21;;;;;;;6.18;1.60;;;8.70;99.90;;;;;;5058441;28;20045;-79
2023/03/28 10:33:12;;;;;;;4.57;1.60;;;8.60;99.90;;;;;;5058176;28;20605;-79
2023/03/28 10:35:40;;;;;;;5.95;1.83;;;8.90;99.90;;;;;;5057907;28;20341;-79
2023/03/28 10:38:16;;;;;;;6.65;1.92;;;8.90;99.90;;;;;;5148778;22;20087;-81
2023/03/28 10:40:50;;;;;;;5.22;1.60;;;9.00;99.90;;;;;;5056905;28;20097;-81
2023/03/28 10:43:16;;;;;;;5.63;1.52;;;9.10;99.90;;;;;;5058171;28;20082;-80
2023/03/28 10:45:49;;;;;;;4.18;1.40;;;9.10;99.90;;;;;;5076051;28;20080;-79
2023/03/28 10:48:19;;;;;;;6.15;1.58;;;9.30;99.90;;;;;;5058325;28;20090;-79
2023/03/28 10:50:48;;;;;;;5.47;1.50;;;9.20;99.90;;;;;;5057169;28;20048;-79
2023/03/28 10:53:19;;;;;;;3.40;1.38;;;9.30;99.90;;;;;;5057915;28;20044;-80
2023/03/28 10:56:22;;;;;;;6.05;1.73;;;9.20;99.90;;;;;;5057953;28;20049;-78
2023/03/28 10:59:06;;;;;;;6.45;1.77;;;9.10;99.90;;;;;;5049588;28;20081;-78
2023/03/28 11:01:49;;;;;;;4.55;1.67;;;9.20;99.90;;;;;;5057409;28;20499;-79
2023/03/28 11:04:38;;;;;;;4.43;1.60;;;9.20;99.90;;;;;;5075804;28;20044;-79
2023/03/28 11:07:27;;;;;;;3.90;1.70;;;9.10;99.90;;;;;;5100079;22;20044;-79
2023/03/28 11:10:16;;;;;;;6.63;1.88;;;9.10;99.90;;;;;;5077418;28;20526;-79
2023/03/28 11:12:51;;;;;;;4.15;1.58;;;9.10;99.90;;;;;;5077732;28;20139;-79
2023/03/28 11:15:45;;;;;;;5.80;1.90;;;9.00;99.90;;;;;;5077773;28;20055;-78
2023/03/28 11:18:33;;;;;;;4.25;1.90;;;8.90;99.90;;;;;;5075740;28;20059;-78
2023/03/28 11:21:25;;;;;;;8.32;2.05;;;8.90;99.90;;;;;;5077134;28;20048;-81
2023/03/28 11:24:29;;;;;;;6.40;2.00;;;8.90;99.90;;;;;;5077386;28;20069;-81
2023/03/28 11:27:27;;;;;;;4.55;1.70;;;8.90;99.90;;;;;;5077489;28;20571;-80
2023/03/28 11:30:12;;;;;;;5.22;1.75;;;9.40;99.90;;;;;;5077068;28;20102;-80
2023/03/28 11:32:54;;;;;;;5.55;2.03;;;9.50;99.90;;;;;;5167304;22;20093;-81
2023/03/28 11:35:45;;;;;;;4.07;1.63;;;9.50;99.90;;;;;;5076999;28;20063;-80
2023/03/28 11:38:25;;;;;;;4.65;1.92;;;9.20;99.90;;;;;;5130041;22;20052;-81
2023/03/28 11:40:58;;;;;;;7.13;2.33;;;9.00;99.90;;;;;;5073725;28;20051;-80
2023/03/28 11:43:45;;;;;;;5.00;2.05;;;9.10;99.90;;;;;;5073929;28;20044;-81
2023/03/28 11:46:21;;;;;;;6.32;2.33;;;9.10;99.90;;;;;;5073560;28;20056;-79
2023/03/28 11:49:10;;;;;;;4.75;2.33;;;9.30;99.90;;;;;;5073594;28;20040;-79
2023/03/28 11:51:56;;;;;;;8.77;2.17;;;9.30;99.90;;;;;;5074720;28;20048;-79
2023/03/28 11:54:35;;;;;;;5.20;2.53;;;9.30;99.90;;;;;;5073761;28;20048;-78
2023/03/28 11:57:06;;;;;;;7.13;2.85;;;9.20;99.90;;;;;;5073624;28;20403;-79
2023/03/28 12:00:11;;;;;;;6.80;2.80;;;9.20;99.90;;;;;;5073300;28;20040;-79
2023/03/28 12:02:44;;;;;;;8.80;2.60;;;9.10;99.90;;;;;;4996330;28;20132;-79
2023/03/28 12:05:33;;;;;;;;;;;9.20;99.90;;;;;;5063524;28;20084;-79
2023/03/28 12:08:18;;;;;;;5.25;2.53;;;9.30;99.90;;;;;;5073062;28;20386;-81
2023/03/28 12:10:52;;;;;;;7.88;2.97;;;9.20;99.90;;;;;;5073204;28;20040;-81
2023/03/28 12:13:40;;;;;;;6.20;2.70;;;9.20;99.90;;;;;;5073136;28;20078;-81
2023/03/28 12:16:09;;;;;;;6.25;3.10;;;9.00;99.90;;;;;;5073138;28;20049;-80
2023/03/28 12:18:46;;;;;;;7.63;2.95;;;9.30;99.90;;;;;;5072760;28;20121;-81
2023/03/28 12:21:24;;;;;;;7.85;3.10;;;9.20;99.90;;;;;;5072667;28;20056;-80
2023/03/28 12:24:16;;;;;;;5.72;2.95;;;9.30;99.90;;;;;;5072803;28;20055;-80
2023/03/28 12:27:00;;;;;;;5.97;2.35;;;9.40;99.90;;;;;;5072980;28;20080;-79
2023/03/28 12:29:38;;;;;;;5.93;3.15;;;9.40;99.90;;;;;;5072885;28;20040;-80
2023/03/28 12:32:23;;;;;;;10.70;3.80;;;9.50;99.90;;;;;;5072654;28;20051;-79
2023/03/28 12:35:14;;;;;;;11.35;3.33;;;9.50;99.90;;;;;;5072400;28;20139;-79
2023/03/28 12:37:57;;;;;;;7.43;3.40;;;9.70;99.90;;;;;;5072318;28;20127;-79
2023/03/28 12:40:48;;;;;;;7.35;2.85;;;9.50;99.90;;;;;;5072220;28;20166;-79
2023/03/28 12:43:17;;;;;;;5.97;4.00;;;9.70;99.90;;;;;;5072308;28;20116;-79
2023/03/28 12:45:47;;;;;;;6.35;3.58;;;9.60;99.90;;;;;;5072713;28;20051;-79
2023/03/28 12:48:25;;;;;;;5.75;3.45;;;9.70;99.90;;;;;;5072119;28;20127;-79
2023/03/28 12:50:59;;;;;;;7.25;3.70;;;9.70;99.90;;;;;;5072475;28;20036;-79
2023/03/28 12:53:30;;;;;;;10.88;4.38;;;9.50;99.90;;;;;;5072226;28;20080;-80
2023/03/28 12:55:55;;;;;;;10.45;5.32;;;9.50;99.90;;;;;;5072169;28;20040;-80
2023/03/28 12:58:32;;;;;;;7.05;4.22;;;9.70;99.90;;;;;;5072111;28;20044;-79
2023/03/28 13:01:07;;;;;;;11.80;4.47;;;9.50;99.90;;;;;;5072196;28;20048;-79
2023/03/28 13:03:35;;;;;;;7.05;3.80;;;9.50;99.90;;;;;;5072338;28;20098;-79
2023/03/28 13:06:28;;;;;;;7.03;4.13;;;9.60;99.90;;;;;;5072099;28;20047;-79
2023/03/28 13:09:21;;;;;;;8.73;3.97;;;9.40;99.90;;;;;;5072207;28;20135;-78
2023/03/28 13:12:17;;;;;;;10.45;3.90;;;9.60;99.90;;;;;;5073387;28;20043;-78
2023/03/28 13:14:57;;;;;;;12.07;4.35;;;9.60;99.90;;;;;;5071911;28;20044;-78
2023/03/28 13:17:25;;;;;;;8.80;4.13;;;9.40;99.90;;;;;;5071603;28;20044;-78
2023/03/28 13:20:11;;;;;;;11.07;3.83;;;9.40;99.90;;;;;;5072151;28;20044;-78
2023/03/28 13:23:00;;;;;;;7.50;3.65;;;9.50;99.90;;;;;;5071917;28;20479;-78
2023/03/28 13:25:32;;;;;;;8.00;3.80;;;9.50;99.90;;;;;;5072095;28;20040;-78
2023/03/28 13:28:11;;;;;;;10.40;5.03;;;9.30;99.90;;;;;;5072155;28;20059;-77